createdAt,value
2023-05-07T00:00:30.364Z,27.98
2023-05-07T00:03:03.494Z,27.70
2023-05-07T00:05:50.356Z,28.67
2023-05-07T00:08:23.500Z,28.27
2023-05-07T00:11:17.354Z,30.02
2023-05-07T00:14:11.359Z,28.65
2023-05-07T00:16:58.526Z,27.23
2023-05-07T00:19:32.853Z,27.88
2023-05-07T00:22:19.365Z,27.35
2023-05-07T00:24:52.483Z,30.92
2023-05-07T00:27:39.356Z,29.92
2023-05-07T00:30:13.622Z,29.80
2023-05-07T00:33:00.413Z,29.48
2023-05-07T00:35:33.502Z,26.50
2023-05-07T00:38:20.413Z,28.25
2023-05-07T00:40:53.778Z,29.55
2023-05-07T00:43:42.668Z,28.23
2023-05-07T00:46:17.012Z,29.20
2023-05-07T00:49:03.382Z,28.42
2023-05-07T00:51:37.477Z,28.65
2023-05-07T00:54:24.409Z,28.83
2023-05-07T00:56:57.463Z,27.95
2023-05-07T00:59:44.420Z,27.08
2023-05-07T01:02:17.536Z,28.65
2023-05-07T01:05:04.449Z,26.35
2023-05-07T01:07:45.398Z,28.60
2023-05-07T01:10:39.389Z,29.42
2023-05-07T01:13:34.415Z,27.38
2023-05-07T01:16:29.384Z,29.02
2023-05-07T01:19:20.415Z,28.95
2023-05-07T01:21:58.716Z,26.85
2023-05-07T01:24:45.400Z,28.60
2023-05-07T01:27:25.378Z,29.10
2023-05-07T01:30:19.383Z,29.83
2023-05-07T01:33:15.396Z,31.20
2023-05-07T01:35:52.533Z,31.95
2023-05-07T01:38:40.415Z,29.75
2023-05-07T01:41:14.518Z,30.88
2023-05-07T01:44:02.403Z,31.30
2023-05-07T01:46:36.607Z,32.15
2023-05-07T01:49:24.397Z,30.48
2023-05-07T01:51:57.525Z,30.77
2023-05-07T01:54:44.404Z,31.08
2023-05-07T01:57:24.402Z,32.63
2023-05-07T02:00:12.646Z,31.13
2023-05-07T02:02:53.441Z,29.73
2023-05-07T02:05:40.470Z,33.85
2023-05-07T02:08:13.532Z,32.10
2023-05-07T02:11:01.659Z,31.42
2023-05-07T02:13:37.523Z,35.42
2023-05-07T02:16:24.491Z,34.55
2023-05-07T02:18:57.658Z,31.92
2023-05-07T02:21:44.409Z,29.65
2023-05-07T02:24:17.574Z,32.47
2023-05-07T02:27:04.380Z,31.60
2023-05-07T02:29:44.408Z,33.80
2023-05-07T02:32:31.464Z,31.10
2023-05-07T02:35:04.503Z,31.98
2023-05-07T02:37:51.447Z,29.17
2023-05-07T02:40:31.421Z,32.22
2023-05-07T02:43:25.453Z,32.88
2023-05-07T02:46:14.458Z,29.83
2023-05-07T02:48:47.568Z,30.67
2023-05-07T02:51:34.439Z,28.92
2023-05-07T02:54:07.905Z,30.77
2023-05-07T02:56:54.460Z,29.85
2023-05-07T02:59:27.566Z,30.60
2023-05-07T03:02:14.425Z,29.85
2023-05-07T03:04:47.604Z,28.60
2023-05-07T03:07:34.437Z,37.40
2023-05-07T03:10:07.562Z,31.02
2023-05-07T03:13:01.508Z,30.65
2023-05-07T03:15:55.508Z,28.95
2023-05-07T03:18:42.468Z,27.85
2023-05-07T03:21:15.748Z,32.63
2023-05-07T03:24:02.466Z,28.77
2023-05-07T03:26:35.601Z,29.42
2023-05-07T03:29:22.469Z,29.67
2023-05-07T03:31:55.561Z,29.08
2023-05-07T03:34:42.446Z,28.65
2023-05-07T03:37:15.587Z,29.30
2023-05-07T03:40:02.445Z,30.95
2023-05-07T03:42:36.573Z,31.35
2023-05-07T03:45:23.464Z,29.67
2023-05-07T03:47:56.603Z,28.52
2023-05-07T03:50:43.477Z,29.15
2023-05-07T03:53:16.568Z,30.77
2023-05-07T03:55:57.469Z,28.52
2023-05-07T03:58:37.565Z,29.63
2023-05-07T04:01:17.448Z,26.85
2023-05-07T04:03:57.840Z,28.63
2023-05-07T04:06:38.471Z,26.95
2023-05-07T04:09:18.513Z,26.95
2023-05-07T04:11:58.471Z,26.30
2023-05-07T04:14:45.475Z,25.65
2023-05-07T04:17:25.507Z,26.35
2023-05-07T04:20:14.454Z,26.15
2023-05-07T04:22:47.571Z,26.17
2023-05-07T04:25:34.473Z,25.98
2023-05-07T04:28:14.536Z,26.10
2023-05-07T04:31:01.488Z,25.95
2023-05-07T04:33:41.463Z,25.02
2023-05-07T04:36:35.483Z,25.88
2023-05-07T04:39:29.490Z,26.13
2023-05-07T04:42:17.488Z,23.63
2023-05-07T04:44:52.583Z,24.05
2023-05-07T04:47:39.535Z,24.50
2023-05-07T04:50:14.588Z,25.65
2023-05-07T04:53:01.478Z,24.83
2023-05-07T04:55:34.705Z,24.67
2023-05-07T04:58:21.494Z,23.75
2023-05-07T05:00:54.596Z,23.58
2023-05-07T05:03:41.514Z,23.70
2023-05-07T05:06:14.596Z,23.45
2023-05-07T05:09:01.487Z,22.60
2023-05-07T05:11:41.510Z,24.08
2023-05-07T05:14:35.494Z,22.17
2023-05-07T05:17:22.558Z,21.58
2023-05-07T05:20:02.531Z,21.50
2023-05-07T05:22:50.490Z,21.30
2023-05-07T05:25:30.487Z,22.40
2023-05-07T05:28:17.537Z,21.48
2023-05-07T05:30:50.940Z,21.15
2023-05-07T05:33:37.516Z,22.38
2023-05-07T05:36:18.512Z,23.27
2023-05-07T05:39:12.521Z,21.45
2023-05-07T05:42:06.512Z,21.08
2023-05-07T05:44:53.514Z,23.58
2023-05-07T05:47:26.608Z,23.25
2023-05-07T05:50:14.521Z,23.92
2023-05-07T05:52:47.636Z,23.80
2023-05-07T05:55:34.527Z,24.02
2023-05-07T05:58:08.623Z,24.00
2023-05-07T06:00:55.523Z,24.88
2023-05-07T06:03:35.519Z,25.33
2023-05-07T06:06:29.521Z,23.70
2023-05-07T06:09:23.538Z,23.45
2023-05-07T06:12:17.564Z,23.65
2023-05-07T06:15:11.510Z,24.00
2023-05-07T06:18:05.564Z,26.30
2023-05-07T06:20:52.540Z,25.48
2023-05-07T06:23:25.755Z,24.58
2023-05-07T06:26:12.557Z,23.75
2023-05-07T06:28:45.640Z,24.55
2023-05-07T06:31:38.619Z,23.23
2023-05-07T06:34:15.131Z,25.08
2023-05-07T06:37:02.543Z,24.45
2023-05-07T06:39:35.924Z,23.75
2023-05-07T06:42:22.527Z,25.25
2023-05-07T06:44:56.082Z,24.27
2023-05-07T06:47:42.590Z,23.27
2023-05-07T06:50:24.566Z,23.17
2023-05-07T06:53:11.549Z,24.30
2023-05-07T06:55:44.640Z,23.38
2023-05-07T06:58:31.559Z,23.85
2023-05-07T07:01:04.686Z,22.35
2023-05-07T07:03:51.555Z,24.98
2023-05-07T07:06:31.557Z,29.58
2023-05-07T07:09:18.547Z,28.80
2023-05-07T07:11:51.689Z,26.67
2023-05-07T07:14:45.577Z,24.10
2023-05-07T07:17:39.664Z,23.23
2023-05-07T07:20:33.559Z,23.50
2023-05-07T07:23:13.566Z,23.05
2023-05-07T07:25:53.653Z,21.35
2023-05-07T07:28:33.539Z,22.40
2023-05-07T07:31:20.633Z,21.52
2023-05-07T07:34:14.546Z,22.35
2023-05-07T07:37:12.569Z,20.75
2023-05-07T07:39:59.684Z,21.23
2023-05-07T07:42:32.699Z,20.23
2023-05-07T07:45:19.581Z,20.73
2023-05-07T07:47:52.695Z,21.13
2023-05-07T07:50:44.988Z,21.20
2023-05-07T07:53:25.571Z,18.65
2023-05-07T07:56:19.573Z,20.77
2023-05-07T07:59:06.583Z,18.80
2023-05-07T08:01:46.664Z,21.23
2023-05-07T08:04:40.662Z,21.73
2023-05-07T08:07:30.573Z,20.33
2023-05-07T08:10:03.757Z,19.92
2023-05-07T08:12:57.605Z,18.13
2023-05-07T08:15:51.608Z,18.60
2023-05-07T08:18:45.584Z,19.20
2023-05-07T08:21:34.617Z,19.73
2023-05-07T08:24:07.690Z,19.90
2023-05-07T08:26:54.586Z,18.60
2023-05-07T08:29:27.695Z,19.77
2023-05-07T08:32:14.668Z,18.60
2023-05-07T08:34:47.713Z,18.30
2023-05-07T08:37:34.602Z,20.23
2023-05-07T08:40:10.738Z,18.10
2023-05-07T08:43:00.632Z,18.15
2023-05-07T08:45:35.762Z,17.45
2023-05-07T08:48:23.635Z,17.25
2023-05-07T08:50:57.709Z,17.70
2023-05-07T08:53:48.592Z,17.23
2023-05-07T08:56:29.643Z,18.13
2023-05-07T08:59:16.625Z,18.35
2023-05-07T09:01:49.830Z,18.58
2023-05-07T09:04:36.638Z,18.65
2023-05-07T09:07:16.616Z,17.67
2023-05-07T09:10:10.697Z,17.20
2023-05-07T09:13:05.752Z,17.48
2023-05-07T09:15:52.713Z,17.05
2023-05-07T09:18:26.475Z,16.75
2023-05-07T09:21:17.619Z,16.95
2023-05-07T09:23:57.853Z,16.73
2023-05-07T09:26:44.616Z,16.88
2023-05-07T09:29:25.617Z,15.98
2023-05-07T09:32:16.609Z,16.40
2023-05-07T09:34:56.634Z,14.38
2023-05-07T09:37:43.635Z,15.43
2023-05-07T09:40:34.652Z,14.48
2023-05-07T09:43:28.648Z,14.85
2023-05-07T09:46:31.669Z,14.48
2023-05-07T09:49:27.659Z,15.07
2023-05-07T09:52:00.735Z,13.52
2023-05-07T09:54:50.674Z,13.48
2023-05-07T09:57:33.627Z,13.40
2023-05-07T10:00:30.649Z,13.88
2023-05-07T10:03:19.726Z,14.45
2023-05-07T10:06:01.625Z,13.73
2023-05-07T10:08:57.648Z,13.63
2023-05-07T10:11:44.625Z,12.98
2023-05-07T10:14:25.654Z,13.65
2023-05-07T10:17:20.676Z,13.18
2023-05-07T10:20:08.569Z,14.65
2023-05-07T10:22:55.682Z,15.40
2023-05-07T10:25:42.671Z,14.25
2023-05-07T10:28:26.672Z,13.15
2023-05-07T10:32:04.661Z,14.07
2023-05-07T10:34:45.853Z,13.70
2023-05-07T10:37:32.685Z,14.75
2023-05-07T10:40:14.724Z,14.02
2023-05-07T10:43:14.691Z,14.05
2023-05-07T10:46:18.768Z,15.65
2023-05-07T10:49:12.549Z,14.93
2023-05-07T10:52:38.684Z,14.70
2023-05-07T10:55:44.709Z,14.45
2023-05-07T10:58:44.729Z,16.38
2023-05-07T11:02:05.769Z,15.57
2023-05-07T11:04:40.113Z,16.23
2023-05-07T11:07:35.685Z,17.08
2023-05-07T11:10:10.773Z,15.38
2023-05-07T11:13:05.734Z,16.35
2023-05-07T11:15:54.685Z,15.85
2023-05-07T11:18:27.895Z,16.08
2023-05-07T11:21:14.693Z,15.07
2023-05-07T11:23:55.685Z,13.40
2023-05-07T11:26:53.711Z,15.10
2023-05-07T11:29:30.070Z,16.00
2023-05-07T11:32:16.695Z,14.52
2023-05-07T11:34:57.668Z,15.43
2023-05-07T11:37:51.689Z,14.23
2023-05-07T11:40:38.685Z,15.18
2023-05-07T11:43:20.889Z,15.68
2023-05-07T11:46:16.700Z,14.57
2023-05-07T11:48:50.870Z,14.73
2023-05-07T11:51:38.739Z,16.52
2023-05-07T11:54:18.917Z,15.85
2023-05-07T11:57:06.732Z,16.75
2023-05-07T11:59:48.490Z,14.88
2023-05-07T12:02:35.793Z,16.77
2023-05-07T12:05:08.840Z,16.00
2023-05-07T12:07:55.676Z,15.27
2023-05-07T12:10:28.816Z,25.05
2023-05-07T12:13:38.687Z,14.77
2023-05-07T12:16:33.728Z,17.30
2023-05-07T12:19:27.728Z,16.20
2023-05-07T12:22:17.680Z,16.17
2023-05-07T12:24:55.923Z,14.13
2023-05-07T12:27:46.692Z,16.23
2023-05-07T12:30:27.768Z,17.02
2023-05-07T12:33:21.709Z,15.68
2023-05-07T12:36:12.710Z,14.93
2023-05-07T12:38:53.713Z,15.73
2023-05-07T12:42:06.703Z,16.25
2023-05-07T12:44:53.731Z,16.60
2023-05-07T12:47:34.792Z,15.52
2023-05-07T12:50:29.735Z,16.42
2023-05-07T12:53:19.732Z,16.98
2023-05-07T12:55:55.844Z,15.13
2023-05-07T12:58:43.712Z,15.48
2023-05-07T13:01:20.247Z,15.68
2023-05-07T13:04:11.793Z,15.88
2023-05-07T13:06:44.825Z,15.98
2023-05-07T13:09:31.728Z,17.17
2023-05-07T13:12:12.732Z,17.00
2023-05-07T13:15:06.726Z,15.00
2023-05-07T13:17:53.837Z,14.82
2023-05-07T13:20:26.808Z,15.35
2023-05-07T13:23:13.735Z,16.30
2023-05-07T13:25:46.865Z,17.02
2023-05-07T13:28:33.741Z,17.42
2023-05-07T13:31:13.778Z,17.38
2023-05-07T13:34:00.709Z,18.58
2023-05-07T13:36:38.058Z,18.15
2023-05-07T13:39:24.754Z,20.23
2023-05-07T13:41:57.953Z,18.65
2023-05-07T13:44:44.820Z,19.02
2023-05-07T13:47:18.854Z,20.40
2023-05-07T13:50:05.737Z,18.67
2023-05-07T13:52:47.140Z,20.30
2023-05-07T13:55:40.757Z,21.33
2023-05-07T13:58:36.522Z,21.05
2023-05-07T14:01:31.842Z,20.85
2023-05-07T14:04:18.760Z,20.35
2023-05-07T14:06:51.877Z,21.17
2023-05-07T14:09:38.739Z,21.60
2023-05-07T14:12:12.820Z,19.10
2023-05-07T14:15:06.758Z,20.08
2023-05-07T14:18:00.791Z,19.27
2023-05-07T14:20:47.772Z,19.73
2023-05-07T14:23:23.121Z,20.50
2023-05-07T14:26:09.742Z,23.17
2023-05-07T14:28:47.263Z,21.77
2023-05-07T14:31:33.857Z,23.30
2023-05-07T14:34:13.752Z,20.90
2023-05-07T14:37:07.769Z,22.00
2023-05-07T14:39:54.777Z,21.15
2023-05-07T14:42:27.852Z,21.15
2023-05-07T14:45:15.762Z,22.17
2023-05-07T14:47:48.963Z,21.85
2023-05-07T14:50:35.763Z,20.38
2023-05-07T14:53:18.765Z,19.92
2023-05-07T14:56:12.802Z,20.52
2023-05-07T14:58:59.752Z,20.02
2023-05-07T15:01:32.993Z,21.10
2023-05-07T15:04:19.796Z,25.00
2023-05-07T15:07:01.767Z,22.02
2023-05-07T15:09:52.940Z,22.98
2023-05-07T15:12:32.815Z,29.80
2023-05-07T15:15:26.900Z,22.23
2023-05-07T15:18:22.921Z,23.27
2023-05-07T15:21:09.789Z,21.95
2023-05-07T15:23:42.897Z,21.00
2023-05-07T15:26:30.790Z,19.95
2023-05-07T15:29:15.775Z,20.90
2023-05-07T15:32:09.885Z,22.20
2023-05-07T15:35:03.775Z,24.35
2023-05-07T15:37:57.781Z,23.38
2023-05-07T15:40:48.838Z,23.15
2023-05-07T15:43:22.635Z,22.63
2023-05-07T15:46:09.827Z,21.33
2023-05-07T15:48:43.009Z,19.13
2023-05-07T15:51:29.812Z,22.13
2023-05-07T15:54:09.866Z,22.05
2023-05-07T15:57:03.775Z,23.33
2023-05-07T15:59:57.811Z,23.13
2023-05-07T16:02:52.018Z,21.55
2023-05-07T16:05:45.819Z,20.70
2023-05-07T16:08:32.803Z,23.77
2023-05-07T16:11:13.796Z,21.35
2023-05-07T16:14:07.794Z,20.38
2023-05-07T16:17:01.919Z,20.05
2023-05-07T16:19:48.804Z,19.80
2023-05-07T16:22:28.805Z,19.00
2023-05-07T16:25:15.813Z,20.73
2023-05-07T16:27:55.802Z,22.70
2023-05-07T16:30:49.877Z,19.67
2023-05-07T16:33:36.799Z,19.38
2023-05-07T16:36:10.007Z,19.58
2023-05-07T16:38:56.828Z,21.58
2023-05-07T16:41:29.942Z,21.02
2023-05-07T16:44:16.838Z,21.35
2023-05-07T16:46:57.824Z,19.13
2023-05-07T16:49:53.033Z,17.35
2023-05-07T16:52:48.830Z,18.35
2023-05-07T16:55:41.802Z,18.58
2023-05-07T16:58:17.028Z,18.58
2023-05-07T17:01:03.827Z,19.13
2023-05-07T17:03:43.855Z,17.77
2023-05-07T17:06:37.817Z,18.80
2023-05-07T17:09:24.885Z,18.15
2023-05-07T17:11:58.038Z,17.83
2023-05-07T17:14:51.842Z,17.58
2023-05-07T17:17:38.868Z,17.85
2023-05-07T17:20:19.830Z,19.23
2023-05-07T17:23:14.843Z,22.80
2023-05-07T17:26:01.829Z,18.17
2023-05-07T17:28:36.952Z,18.52
2023-05-07T17:31:23.909Z,17.58
2023-05-07T17:34:05.882Z,17.42
2023-05-07T17:36:59.920Z,18.45
2023-05-07T17:39:48.821Z,17.38
2023-05-07T17:42:22.046Z,18.95
2023-05-07T17:45:08.841Z,18.48
2023-05-07T17:47:48.869Z,20.13
2023-05-07T17:50:43.918Z,19.60
2023-05-07T17:53:30.855Z,19.98
2023-05-07T17:56:10.839Z,19.48
2023-05-07T17:59:07.834Z,20.25
2023-05-07T18:01:54.981Z,19.20
2023-05-07T18:04:29.136Z,18.70
2023-05-07T18:07:15.813Z,17.95
2023-05-07T18:09:49.053Z,16.58
2023-05-07T18:12:36.844Z,15.77
2023-05-07T18:15:17.873Z,14.95
2023-05-07T18:18:11.895Z,14.30
2023-05-07T18:20:58.901Z,15.77
2023-05-07T18:23:35.640Z,17.15
2023-05-07T18:26:23.932Z,17.17
2023-05-07T18:28:56.988Z,15.40
2023-05-07T18:31:44.097Z,15.25
2023-05-07T18:34:18.004Z,16.25
2023-05-07T18:37:04.878Z,15.68
2023-05-07T18:39:39.020Z,16.05
2023-05-07T18:42:25.876Z,16.23
2023-05-07T18:44:59.029Z,15.85
2023-05-07T18:47:45.949Z,15.85
2023-05-07T18:50:19.747Z,20.75
2023-05-07T18:53:08.850Z,18.20
2023-05-07T18:55:53.887Z,16.77
2023-05-07T18:58:40.858Z,17.77
2023-05-07T19:01:20.934Z,18.17
2023-05-07T19:04:07.930Z,16.95
2023-05-07T19:06:48.877Z,18.02
2023-05-07T19:09:53.658Z,16.60
2023-05-07T19:12:54.923Z,16.35
2023-05-07T19:15:48.921Z,16.50
2023-05-07T19:18:42.882Z,17.63
2023-05-07T19:21:29.864Z,18.30
2023-05-07T19:24:03.003Z,18.05
2023-05-07T19:26:50.950Z,18.17
2023-05-07T19:29:24.116Z,17.88
2023-05-07T19:32:10.955Z,19.10
2023-05-07T19:34:46.028Z,17.70
2023-05-07T19:37:34.898Z,17.65
2023-05-07T19:40:11.796Z,18.38
2023-05-07T19:43:03.903Z,18.88
2023-05-07T19:45:43.932Z,19.13
2023-05-07T19:48:30.880Z,19.25
2023-05-07T19:51:05.068Z,19.60
2023-05-07T19:53:52.903Z,19.20
2023-05-07T19:56:26.273Z,18.35
2023-05-07T19:59:13.896Z,18.08
2023-05-07T20:01:49.060Z,18.98
2023-05-07T20:04:39.877Z,18.42
2023-05-07T20:07:15.082Z,19.05
2023-05-07T20:10:01.963Z,18.10
2023-05-07T20:12:45.978Z,18.90
2023-05-07T20:15:39.966Z,20.45
2023-05-07T20:18:33.916Z,20.55
2023-05-07T20:21:29.901Z,20.65
2023-05-07T20:24:25.885Z,20.73
2023-05-07T20:27:12.908Z,19.55
2023-05-07T20:29:46.661Z,20.35
2023-05-07T20:32:32.946Z,18.58
2023-05-07T20:35:12.884Z,18.98
2023-05-07T20:37:59.922Z,17.50
2023-05-07T20:40:36.992Z,19.63
2023-05-07T20:43:24.918Z,20.73
2023-05-07T20:46:15.013Z,19.70
2023-05-07T20:49:02.905Z,19.20
2023-05-07T20:51:43.912Z,19.00
2023-05-07T20:54:37.893Z,16.50
2023-05-07T20:57:25.929Z,17.50
2023-05-07T20:59:59.239Z,17.58
2023-05-07T21:02:46.940Z,18.25
2023-05-07T21:05:26.920Z,17.50
2023-05-07T21:08:20.924Z,16.80
2023-05-07T21:11:16.927Z,18.50
2023-05-07T21:14:10.938Z,19.63
2023-05-07T21:16:57.972Z,18.80
2023-05-07T21:19:37.913Z,18.50
2023-05-07T21:22:31.963Z,20.55
2023-05-07T21:25:25.920Z,20.25
2023-05-07T21:28:14.923Z,21.17
2023-05-07T21:30:54.921Z,20.50
2023-05-07T21:33:48.967Z,21.25
2023-05-07T21:36:35.950Z,18.45
2023-05-07T21:39:09.150Z,19.50
2023-05-07T21:41:55.909Z,19.33
2023-05-07T21:44:35.918Z,19.13
2023-05-07T21:47:22.951Z,18.27
2023-05-07T21:50:02.956Z,19.30
2023-05-07T21:52:56.931Z,19.83
2023-05-07T21:55:43.946Z,19.75
2023-05-07T21:58:17.009Z,17.98
2023-05-07T22:01:04.971Z,19.73
2023-05-07T22:03:38.102Z,19.13
2023-05-07T22:06:27.921Z,18.77
2023-05-07T22:09:07.951Z,20.65
2023-05-07T22:12:01.942Z,19.35
2023-05-07T22:14:48.908Z,19.05
2023-05-07T22:17:30.977Z,18.88
2023-05-07T22:20:24.929Z,18.65
2023-05-07T22:23:18.950Z,18.85
2023-05-07T22:26:05.965Z,18.17
2023-05-07T22:28:39.071Z,19.35
2023-05-07T22:31:25.995Z,20.17
2023-05-07T22:33:59.091Z,19.45
2023-05-07T22:36:45.955Z,19.33
2023-05-07T22:39:25.936Z,20.25
2023-05-07T22:42:19.953Z,20.60
2023-05-07T22:45:06.951Z,19.55
2023-05-07T22:47:46.987Z,20.02
2023-05-07T22:50:40.966Z,20.90
2023-05-07T22:53:27.949Z,20.85
2023-05-07T22:56:03.699Z,20.00
2023-05-07T22:58:49.946Z,19.90
2023-05-07T23:01:31.022Z,21.48
2023-05-07T23:04:24.944Z,20.02
2023-05-07T23:07:11.960Z,21.15
2023-05-07T23:09:45.199Z,20.60
2023-05-07T23:12:31.958Z,20.60
2023-05-07T23:15:11.975Z,19.35
2023-05-07T23:18:06.987Z,20.85
2023-05-07T23:21:00.973Z,21.30
2023-05-07T23:23:54.960Z,21.33
2023-05-07T23:26:48.956Z,21.05
2023-05-07T23:29:42.980Z,20.55
2023-05-07T23:32:29.984Z,21.77
2023-05-07T23:35:03.445Z,21.85
2023-05-07T23:37:49.958Z,20.75
2023-05-07T23:40:30.973Z,23.10
2023-05-07T23:43:17.991Z,21.75
2023-05-07T23:45:57.972Z,22.33
2023-05-07T23:48:51.982Z,20.90
2023-05-07T23:51:45.982Z,21.00
2023-05-07T23:54:34.247Z,21.15
2023-05-07T23:57:07.072Z,21.65
2023-05-07T23:59:53.993Z,21.52
